sensor_id;sensor_type;location;lat;lon;timestamp;P1;durP1;ratioP1;P2;durP2;ratioP2
25982;SDS011;13773;48.868;10.730;2024-01-10T00:01:31;14.30;;;6.73;;
25982;SDS011;13773;48.868;10.730;2024-01-10T00:03:57;17.37;;;7.50;;
25982;SDS011;13773;48.868;10.730;2024-01-10T00:06:23;13.13;;;7.33;;
25982;SDS011;13773;48.868;10.730;2024-01-10T00:08:49;15.33;;;7.60;;
25982;SDS011;13773;48.868;10.730;2024-01-10T00:11:15;14.10;;;7.03;;
25982;SDS011;13773;48.868;10.730;2024-01-10T00:13:41;14.83;;;7.63;;
25982;SDS011;13773;48.868;10.730;2024-01-10T00:16:07;13.90;;;6.40;;
25982;SDS011;13773;48.868;10.730;2024-01-10T00:18:33;12.47;;;7.13;;
25982;SDS011;13773;48.868;10.730;2024-01-10T00:20:59;12.17;;;7.03;;
25982;SDS011;13773;48.868;10.730;2024-01-10T00:23:25;13.93;;;7.30;;
25982;SDS011;13773;48.868;10.730;2024-01-10T00:25:51;16.97;;;7.57;;
25982;SDS011;13773;48.868;10.730;2024-01-10T00:28:17;13.83;;;7.73;;
25982;SDS011;13773;48.868;10.730;2024-01-10T00:30:43;15.13;;;8.17;;
25982;SDS011;13773;48.868;10.730;2024-01-10T00:33:09;13.97;;;7.73;;
25982;SDS011;13773;48.868;10.730;2024-01-10T00:35:36;14.20;;;7.50;;
25982;SDS011;13773;48.868;10.730;2024-01-10T00:38:02;23.13;;;8.93;;
25982;SDS011;13773;48.868;10.730;2024-01-10T00:40:28;18.80;;;10.20;;
25982;SDS011;13773;48.868;10.730;2024-01-10T00:42:53;13.43;;;7.90;;
25982;SDS011;13773;48.868;10.730;2024-01-10T00:45:19;25.63;;;12.47;;
25982;SDS011;13773;48.868;10.730;2024-01-10T00:47:45;18.63;;;9.30;;
25982;SDS011;13773;48.868;10.730;2024-01-10T00:50:12;17.77;;;9.10;;
25982;SDS011;13773;48.868;10.730;2024-01-10T00:52:37;18.83;;;8.90;;
25982;SDS011;13773;48.868;10.730;2024-01-10T00:55:03;21.33;;;10.30;;
25982;SDS011;13773;48.868;10.730;2024-01-10T00:57:29;15.60;;;7.43;;
25982;SDS011;13773;48.868;10.730;2024-01-10T00:59:55;15.70;;;8.50;;
25982;SDS011;13773;48.868;10.730;2024-01-10T01:02:20;14.30;;;7.00;;
25982;SDS011;13773;48.868;10.730;2024-01-10T01:04:46;13.13;;;7.17;;
25982;SDS011;13773;48.868;10.730;2024-01-10T01:07:12;15.00;;;7.63;;
25982;SDS011;13773;48.868;10.730;2024-01-10T01:09:37;14.23;;;7.47;;
25982;SDS011;13773;48.868;10.730;2024-01-10T01:12:03;13.83;;;7.90;;
25982;SDS011;13773;48.868;10.730;2024-01-10T01:14:29;10.87;;;6.60;;
25982;SDS011;13773;48.868;10.730;2024-01-10T01:16:54;15.30;;;8.17;;
25982;SDS011;13773;48.868;10.730;2024-01-10T01:19:20;15.97;;;7.43;;
25982;SDS011;13773;48.868;10.730;2024-01-10T01:21:46;15.07;;;7.67;;
25982;SDS011;13773;48.868;10.730;2024-01-10T01:24:12;17.10;;;7.77;;
25982;SDS011;13773;48.868;10.730;2024-01-10T01:26:37;15.73;;;6.90;;
25982;SDS011;13773;48.868;10.730;2024-01-10T01:29:03;15.30;;;7.77;;
25982;SDS011;13773;48.868;10.730;2024-01-10T01:31:29;18.20;;;8.93;;
25982;SDS011;13773;48.868;10.730;2024-01-10T01:33:55;15.53;;;7.57;;
25982;SDS011;13773;48.868;10.730;2024-01-10T01:36:20;15.73;;;8.50;;
25982;SDS011;13773;48.868;10.730;2024-01-10T01:38:46;15.80;;;7.87;;
25982;SDS011;13773;48.868;10.730;2024-01-10T01:41:12;14.07;;;6.73;;
25982;SDS011;13773;48.868;10.730;2024-01-10T01:43:40;15.37;;;8.30;;
25982;SDS011;13773;48.868;10.730;2024-01-10T01:46:06;15.60;;;6.97;;
25982;SDS011;13773;48.868;10.730;2024-01-10T01:48:33;12.50;;;6.83;;
25982;SDS011;13773;48.868;10.730;2024-01-10T01:51:01;14.90;;;7.70;;
25982;SDS011;13773;48.868;10.730;2024-01-10T01:53:30;14.77;;;8.47;;
25982;SDS011;13773;48.868;10.730;2024-01-10T01:55:57;16.77;;;9.70;;
25982;SDS011;13773;48.868;10.730;2024-01-10T01:58:25;14.70;;;7.73;;
25982;SDS011;13773;48.868;10.730;2024-01-10T02:00:51;17.90;;;8.37;;
25982;SDS011;13773;48.868;10.730;2024-01-10T02:03:17;17.57;;;8.63;;
25982;SDS011;13773;48.868;10.730;2024-01-10T02:05:42;13.77;;;7.70;;
25982;SDS011;13773;48.868;10.730;2024-01-10T02:08:08;15.67;;;7.83;;
25982;SDS011;13773;48.868;10.730;2024-01-10T02:10:34;15.43;;;8.33;;
25982;SDS011;13773;48.868;10.730;2024-01-10T02:13:00;14.60;;;8.00;;
25982;SDS011;13773;48.868;10.730;2024-01-10T02:15:26;13.57;;;7.57;;
25982;SDS011;13773;48.868;10.730;2024-01-10T02:17:52;15.03;;;7.90;;
25982;SDS011;13773;48.868;10.730;2024-01-10T02:20:17;14.53;;;7.80;;
25982;SDS011;13773;48.868;10.730;2024-01-10T02:22:44;16.97;;;8.87;;
25982;SDS011;13773;48.868;10.730;2024-01-10T02:25:10;15.13;;;8.13;;
25982;SDS011;13773;48.868;10.730;2024-01-10T02:27:36;14.33;;;8.03;;
25982;SDS011;13773;48.868;10.730;2024-01-10T02:30:03;16.27;;;7.70;;
25982;SDS011;13773;48.868;10.730;2024-01-10T02:32:30;17.07;;;8.13;;
25982;SDS011;13773;48.868;10.730;2024-01-10T02:34:56;15.67;;;6.90;;
25982;SDS011;13773;48.868;10.730;2024-01-10T02:37:22;12.87;;;6.73;;
25982;SDS011;13773;48.868;10.730;2024-01-10T02:39:48;12.37;;;7.23;;
25982;SDS011;13773;48.868;10.730;2024-01-10T02:42:14;13.03;;;7.03;;
25982;SDS011;13773;48.868;10.730;2024-01-10T02:44:39;11.20;;;7.67;;
25982;SDS011;13773;48.868;10.730;2024-01-10T02:47:05;15.23;;;8.23;;
25982;SDS011;13773;48.868;10.730;2024-01-10T02:49:32;18.20;;;7.67;;
25982;SDS011;13773;48.868;10.730;2024-01-10T02:51:58;16.47;;;8.07;;
25982;SDS011;13773;48.868;10.730;2024-01-10T02:54:24;15.17;;;7.53;;
25982;SDS011;13773;48.868;10.730;2024-01-10T02:56:49;14.20;;;8.40;;
25982;SDS011;13773;48.868;10.730;2024-01-10T02:59:15;16.23;;;8.17;;
25982;SDS011;13773;48.868;10.730;2024-01-10T03:01:41;19.13;;;8.03;;
25982;SDS011;13773;48.868;10.730;2024-01-10T03:04:06;18.73;;;8.00;;
25982;SDS011;13773;48.868;10.730;2024-01-10T03:06:32;14.33;;;7.93;;
25982;SDS011;13773;48.868;10.730;2024-01-10T03:08:58;15.97;;;8.33;;
25982;SDS011;13773;48.868;10.730;2024-01-10T03:11:23;12.63;;;7.57;;
25982;SDS011;13773;48.868;10.730;2024-01-10T03:13:49;17.00;;;9.00;;
25982;SDS011;13773;48.868;10.730;2024-01-10T03:16:17;13.37;;;8.00;;
25982;SDS011;13773;48.868;10.730;2024-01-10T03:18:43;14.57;;;8.67;;
25982;SDS011;13773;48.868;10.730;2024-01-10T03:21:09;16.47;;;8.00;;
25982;SDS011;13773;48.868;10.730;2024-01-10T03:23:35;17.40;;;9.40;;
25982;SDS011;13773;48.868;10.730;2024-01-10T03:26:00;18.87;;;8.40;;
25982;SDS011;13773;48.868;10.730;2024-01-10T03:28:26;16.83;;;9.17;;
25982;SDS011;13773;48.868;10.730;2024-01-10T03:30:51;17.90;;;8.27;;
25982;SDS011;13773;48.868;10.730;2024-01-10T03:33:17;14.43;;;8.13;;
25982;SDS011;13773;48.868;10.730;2024-01-10T03:35:43;17.93;;;8.53;;
25982;SDS011;13773;48.868;10.730;2024-01-10T03:38:08;15.70;;;8.93;;
25982;SDS011;13773;48.868;10.730;2024-01-10T03:40:34;12.63;;;8.13;;
25982;SDS011;13773;48.868;10.730;2024-01-10T03:43:00;21.00;;;9.17;;
25982;SDS011;13773;48.868;10.730;2024-01-10T03:45:25;17.57;;;8.60;;
25982;SDS011;13773;48.868;10.730;2024-01-10T03:47:51;18.93;;;8.37;;
25982;SDS011;13773;48.868;10.730;2024-01-10T03:50:17;16.23;;;8.40;;
25982;SDS011;13773;48.868;10.730;2024-01-10T03:52:44;16.93;;;8.97;;
25982;SDS011;13773;48.868;10.730;2024-01-10T03:55:11;15.47;;;7.93;;
25982;SDS011;13773;48.868;10.730;2024-01-10T03:57:38;18.77;;;8.17;;
25982;SDS011;13773;48.868;10.730;2024-01-10T04:00:04;15.97;;;8.77;;
25982;SDS011;13773;48.868;10.730;2024-01-10T04:02:31;15.60;;;8.90;;
25982;SDS011;13773;48.868;10.730;2024-01-10T04:04:57;17.53;;;8.50;;
25982;SDS011;13773;48.868;10.730;2024-01-10T04:07:23;16.10;;;8.40;;
25982;SDS011;13773;48.868;10.730;2024-01-10T04:09:50;15.93;;;8.23;;
25982;SDS011;13773;48.868;10.730;2024-01-10T04:12:15;16.40;;;8.67;;
25982;SDS011;13773;48.868;10.730;2024-01-10T04:14:41;13.63;;;8.43;;
25982;SDS011;13773;48.868;10.730;2024-01-10T04:17:06;14.17;;;8.00;;
25982;SDS011;13773;48.868;10.730;2024-01-10T04:19:34;14.97;;;8.87;;
25982;SDS011;13773;48.868;10.730;2024-01-10T04:22:00;15.50;;;8.40;;
25982;SDS011;13773;48.868;10.730;2024-01-10T04:24:25;17.57;;;8.77;;
25982;SDS011;13773;48.868;10.730;2024-01-10T04:26:51;16.70;;;8.70;;
25982;SDS011;13773;48.868;10.730;2024-01-10T04:29:17;16.10;;;8.17;;
25982;SDS011;13773;48.868;10.730;2024-01-10T04:31:42;13.83;;;8.23;;
25982;SDS011;13773;48.868;10.730;2024-01-10T04:34:08;23.03;;;8.93;;
25982;SDS011;13773;48.868;10.730;2024-01-10T04:36:34;12.20;;;7.63;;
25982;SDS011;13773;48.868;10.730;2024-01-10T04:39:00;14.73;;;8.53;;
25982;SDS011;13773;48.868;10.730;2024-01-10T04:41:25;12.43;;;8.13;;
25982;SDS011;13773;48.868;10.730;2024-01-10T04:43:51;17.77;;;7.90;;
25982;SDS011;13773;48.868;10.730;2024-01-10T04:46:17;18.97;;;9.30;;
25982;SDS011;13773;48.868;10.730;2024-01-10T04:48:42;15.97;;;7.80;;
25982;SDS011;13773;48.868;10.730;2024-01-10T04:51:08;22.70;;;9.53;;
25982;SDS011;13773;48.868;10.730;2024-01-10T04:53:34;17.63;;;8.47;;
25982;SDS011;13773;48.868;10.730;2024-01-10T04:56:00;17.87;;;8.50;;
25982;SDS011;13773;48.868;10.730;2024-01-10T04:58:25;20.80;;;10.43;;
25982;SDS011;13773;48.868;10.730;2024-01-10T05:00:51;19.73;;;10.30;;
25982;SDS011;13773;48.868;10.730;2024-01-10T05:03:17;18.43;;;9.80;;
25982;SDS011;13773;48.868;10.730;2024-01-10T05:05:42;16.43;;;9.07;;
25982;SDS011;13773;48.868;10.730;2024-01-10T05:08:08;17.70;;;9.13;;
25982;SDS011;13773;48.868;10.730;2024-01-10T05:10:34;19.73;;;9.23;;
25982;SDS011;13773;48.868;10.730;2024-01-10T05:12:59;17.10;;;9.07;;
25982;SDS011;13773;48.868;10.730;2024-01-10T05:15:25;14.63;;;9.00;;
25982;SDS011;13773;48.868;10.730;2024-01-10T05:17:51;21.33;;;10.00;;
25982;SDS011;13773;48.868;10.730;2024-01-10T05:20:17;22.10;;;9.80;;
25982;SDS011;13773;48.868;10.730;2024-01-10T05:22:43;19.70;;;10.37;;
25982;SDS011;13773;48.868;10.730;2024-01-10T05:25:09;18.63;;;9.47;;
25982;SDS011;13773;48.868;10.730;2024-01-10T05:27:34;21.13;;;10.60;;
25982;SDS011;13773;48.868;10.730;2024-01-10T05:30:00;14.80;;;9.07;;
25982;SDS011;13773;48.868;10.730;2024-01-10T05:32:26;20.57;;;10.27;;
25982;SDS011;13773;48.868;10.730;2024-01-10T05:34:53;20.77;;;11.17;;
25982;SDS011;13773;48.868;10.730;2024-01-10T05:37:19;18.87;;;10.20;;
25982;SDS011;13773;48.868;10.730;2024-01-10T05:39:44;19.10;;;9.97;;
25982;SDS011;13773;48.868;10.730;2024-01-10T05:42:10;18.30;;;10.23;;
25982;SDS011;13773;48.868;10.730;2024-01-10T05:44:36;20.67;;;9.73;;
25982;SDS011;13773;48.868;10.730;2024-01-10T05:47:02;19.40;;;9.97;;
25982;SDS011;13773;48.868;10.730;2024-01-10T05:49:28;19.77;;;10.47;;
25982;SDS011;13773;48.868;10.730;2024-01-10T05:51:53;21.47;;;10.37;;
25982;SDS011;13773;48.868;10.730;2024-01-10T05:54:19;17.37;;;9.27;;
25982;SDS011;13773;48.868;10.730;2024-01-10T05:56:45;21.27;;;10.47;;
25982;SDS011;13773;48.868;10.730;2024-01-10T05:59:11;21.73;;;11.17;;
25982;SDS011;13773;48.868;10.730;2024-01-10T06:01:37;20.33;;;10.90;;
25982;SDS011;13773;48.868;10.730;2024-01-10T06:04:05;24.07;;;10.70;;
25982;SDS011;13773;48.868;10.730;2024-01-10T06:06:31;23.03;;;11.30;;
25982;SDS011;13773;48.868;10.730;2024-01-10T06:08:57;17.53;;;10.60;;
25982;SDS011;13773;48.868;10.730;2024-01-10T06:11:23;19.43;;;10.57;;
25982;SDS011;13773;48.868;10.730;2024-01-10T06:13:49;22.73;;;12.00;;
25982;SDS011;13773;48.868;10.730;2024-01-10T06:16:14;18.77;;;9.13;;
25982;SDS011;13773;48.868;10.730;2024-01-10T06:18:40;18.93;;;10.43;;
25982;SDS011;13773;48.868;10.730;2024-01-10T06:21:06;19.97;;;11.57;;
25982;SDS011;13773;48.868;10.730;2024-01-10T06:23:32;26.17;;;12.63;;
25982;SDS011;13773;48.868;10.730;2024-01-10T06:25:57;19.60;;;11.83;;
25982;SDS011;13773;48.868;10.730;2024-01-10T06:28:23;20.93;;;11.73;;
25982;SDS011;13773;48.868;10.730;2024-01-10T06:30:49;23.07;;;12.53;;
25982;SDS011;13773;48.868;10.730;2024-01-10T06:33:15;23.20;;;11.90;;
25982;SDS011;13773;48.868;10.730;2024-01-10T06:35:41;20.80;;;12.17;;
25982;SDS011;13773;48.868;10.730;2024-01-10T06:38:10;30.67;;;14.87;;
25982;SDS011;13773;48.868;10.730;2024-01-10T06:40:36;26.57;;;13.90;;
25982;SDS011;13773;48.868;10.730;2024-01-10T06:43:02;18.83;;;11.57;;
25982;SDS011;13773;48.868;10.730;2024-01-10T06:45:33;24.70;;;12.60;;
25982;SDS011;13773;48.868;10.730;2024-01-10T06:47:59;21.27;;;12.90;;
25982;SDS011;13773;48.868;10.730;2024-01-10T06:50:25;22.63;;;12.50;;
25982;SDS011;13773;48.868;10.730;2024-01-10T06:52:50;25.43;;;12.93;;
25982;SDS011;13773;48.868;10.730;2024-01-10T06:55:16;25.60;;;13.20;;
25982;SDS011;13773;48.868;10.730;2024-01-10T06:57:43;25.23;;;13.13;;
25982;SDS011;13773;48.868;10.730;2024-01-10T07:00:09;27.20;;;13.80;;
25982;SDS011;13773;48.868;10.730;2024-01-10T07:02:36;24.40;;;12.50;;
25982;SDS011;13773;48.868;10.730;2024-01-10T07:05:05;25.73;;;12.83;;
25982;SDS011;13773;48.868;10.730;2024-01-10T07:07:32;25.67;;;12.43;;
25982;SDS011;13773;48.868;10.730;2024-01-10T07:10:00;24.17;;;12.73;;
25982;SDS011;13773;48.868;10.730;2024-01-10T07:12:30;24.50;;;12.77;;
25982;SDS011;13773;48.868;10.730;2024-01-10T07:14:57;24.50;;;13.47;;
25982;SDS011;13773;48.868;10.730;2024-01-10T07:17:22;27.77;;;13.80;;
25982;SDS011;13773;48.868;10.730;2024-01-10T07:19:48;24.40;;;12.80;;
25982;SDS011;13773;48.868;10.730;2024-01-10T07:22:14;22.83;;;13.57;;
25982;SDS011;13773;48.868;10.730;2024-01-10T07:24:40;25.60;;;12.83;;
25982;SDS011;13773;48.868;10.730;2024-01-10T07:27:06;23.37;;;12.73;;
25982;SDS011;13773;48.868;10.730;2024-01-10T07:29:33;25.90;;;13.40;;
25982;SDS011;13773;48.868;10.730;2024-01-10T07:31:59;23.13;;;12.63;;
25982;SDS011;13773;48.868;10.730;2024-01-10T07:34:25;26.13;;;13.30;;
25982;SDS011;13773;48.868;10.730;2024-01-10T07:36:50;26.57;;;14.33;;
25982;SDS011;13773;48.868;10.730;2024-01-10T07:39:17;25.73;;;14.17;;
25982;SDS011;13773;48.868;10.730;2024-01-10T07:41:43;27.17;;;15.10;;
25982;SDS011;13773;48.868;10.730;2024-01-10T07:44:09;28.07;;;14.87;;
25982;SDS011;13773;48.868;10.730;2024-01-10T07:46:35;27.40;;;14.33;;
25982;SDS011;13773;48.868;10.730;2024-01-10T07:49:04;31.63;;;15.00;;
25982;SDS011;13773;48.868;10.730;2024-01-10T07:51:30;27.97;;;13.60;;
25982;SDS011;13773;48.868;10.730;2024-01-10T07:53:57;28.13;;;14.67;;
25982;SDS011;13773;48.868;10.730;2024-01-10T07:56:24;26.10;;;13.93;;
25982;SDS011;13773;48.868;10.730;2024-01-10T07:58:50;22.33;;;10.47;;
25982;SDS011;13773;48.868;10.730;2024-01-10T08:01:17;29.93;;;14.97;;
25982;SDS011;13773;48.868;10.730;2024-01-10T08:03:42;25.80;;;13.77;;
25982;SDS011;13773;48.868;10.730;2024-01-10T08:06:08;23.83;;;14.13;;
25982;SDS011;13773;48.868;10.730;2024-01-10T08:08:35;29.40;;;14.90;;
25982;SDS011;13773;48.868;10.730;2024-01-10T08:11:01;28.10;;;14.20;;
25982;SDS011;13773;48.868;10.730;2024-01-10T08:13:27;26.57;;;13.37;;
25982;SDS011;13773;48.868;10.730;2024-01-10T08:15:53;25.40;;;13.60;;
25982;SDS011;13773;48.868;10.730;2024-01-10T08:18:19;27.63;;;14.30;;
25982;SDS011;13773;48.868;10.730;2024-01-10T08:20:45;26.23;;;15.10;;
25982;SDS011;13773;48.868;10.730;2024-01-10T08:23:11;23.17;;;13.43;;
25982;SDS011;13773;48.868;10.730;2024-01-10T08:25:36;27.53;;;14.40;;
25982;SDS011;13773;48.868;10.730;2024-01-10T08:28:03;25.40;;;13.77;;
25982;SDS011;13773;48.868;10.730;2024-01-10T08:30:29;28.50;;;13.73;;
25982;SDS011;13773;48.868;10.730;2024-01-10T08:32:54;25.20;;;13.13;;
25982;SDS011;13773;48.868;10.730;2024-01-10T08:35:20;27.37;;;13.87;;
25982;SDS011;13773;48.868;10.730;2024-01-10T08:37:46;24.07;;;13.27;;
25982;SDS011;13773;48.868;10.730;2024-01-10T08:40:12;24.63;;;12.57;;
25982;SDS011;13773;48.868;10.730;2024-01-10T08:42:40;23.83;;;13.43;;
25982;SDS011;13773;48.868;10.730;2024-01-10T08:45:07;27.53;;;14.13;;
25982;SDS011;13773;48.868;10.730;2024-01-10T08:47:34;24.20;;;14.27;;
25982;SDS011;13773;48.868;10.730;2024-01-10T08:50:02;26.33;;;14.87;;
25982;SDS011;13773;48.868;10.730;2024-01-10T08:52:30;27.87;;;13.73;;
25982;SDS011;13773;48.868;10.730;2024-01-10T08:54:56;29.87;;;15.83;;
25982;SDS011;13773;48.868;10.730;2024-01-10T08:57:22;32.17;;;13.50;;
25982;SDS011;13773;48.868;10.730;2024-01-10T08:59:48;28.10;;;14.00;;
25982;SDS011;13773;48.868;10.730;2024-01-10T09:02:14;29.33;;;15.17;;
25982;SDS011;13773;48.868;10.730;2024-01-10T09:04:39;27.90;;;14.60;;
25982;SDS011;13773;48.868;10.730;2024-01-10T09:07:06;26.97;;;14.00;;
25982;SDS011;13773;48.868;10.730;2024-01-10T09:09:34;26.37;;;13.37;;
25982;SDS011;13773;48.868;10.730;2024-01-10T09:12:00;29.73;;;15.10;;
25982;SDS011;13773;48.868;10.730;2024-01-10T09:14:25;26.37;;;13.70;;
25982;SDS011;13773;48.868;10.730;2024-01-10T09:16:51;26.67;;;14.00;;
25982;SDS011;13773;48.868;10.730;2024-01-10T09:19:17;30.27;;;14.50;;
25982;SDS011;13773;48.868;10.730;2024-01-10T09:21:43;26.33;;;13.47;;
25982;SDS011;13773;48.868;10.730;2024-01-10T09:24:08;25.43;;;12.93;;
25982;SDS011;13773;48.868;10.730;2024-01-10T09:26:36;26.83;;;13.50;;
25982;SDS011;13773;48.868;10.730;2024-01-10T09:29:02;27.23;;;14.27;;
25982;SDS011;13773;48.868;10.730;2024-01-10T09:31:28;24.50;;;12.73;;
25982;SDS011;13773;48.868;10.730;2024-01-10T09:33:53;28.93;;;15.40;;
25982;SDS011;13773;48.868;10.730;2024-01-10T09:36:19;26.77;;;13.60;;
25982;SDS011;13773;48.868;10.730;2024-01-10T09:38:44;26.77;;;15.00;;
25982;SDS011;13773;48.868;10.730;2024-01-10T09:41:10;23.37;;;13.33;;
25982;SDS011;13773;48.868;10.730;2024-01-10T09:43:38;21.43;;;12.27;;
25982;SDS011;13773;48.868;10.730;2024-01-10T09:46:04;23.47;;;13.33;;
25982;SDS011;13773;48.868;10.730;2024-01-10T09:48:32;27.90;;;13.97;;
25982;SDS011;13773;48.868;10.730;2024-01-10T09:50:58;24.97;;;12.33;;
25982;SDS011;13773;48.868;10.730;2024-01-10T09:53:25;27.77;;;13.90;;
25982;SDS011;13773;48.868;10.730;2024-01-10T09:55:52;22.10;;;13.03;;
25982;SDS011;13773;48.868;10.730;2024-01-10T09:58:21;25.10;;;14.47;;
25982;SDS011;13773;48.868;10.730;2024-01-10T10:00:50;26.77;;;14.60;;
25982;SDS011;13773;48.868;10.730;2024-01-10T10:03:16;25.60;;;14.27;;
25982;SDS011;13773;48.868;10.730;2024-01-10T10:05:43;29.43;;;14.17;;
25982;SDS011;13773;48.868;10.730;2024-01-10T10:08:10;24.20;;;14.13;;
25982;SDS011;13773;48.868;10.730;2024-01-10T10:10:37;30.00;;;14.23;;
25982;SDS011;13773;48.868;10.730;2024-01-10T10:13:08;22.60;;;13.73;;
25982;SDS011;13773;48.868;10.730;2024-01-10T10:15:37;28.43;;;14.73;;
25982;SDS011;13773;48.868;10.730;2024-01-10T10:18:03;26.67;;;13.83;;
25982;SDS011;13773;48.868;10.730;2024-01-10T10:20:30;25.07;;;13.90;;
25982;SDS011;13773;48.868;10.730;2024-01-10T10:23:05;21.93;;;13.17;;
25982;SDS011;13773;48.868;10.730;2024-01-10T10:25:32;36.10;;;16.97;;
25982;SDS011;13773;48.868;10.730;2024-01-10T10:28:00;30.33;;;15.43;;
25982;SDS011;13773;48.868;10.730;2024-01-10T10:30:27;25.30;;;14.90;;
25982;SDS011;13773;48.868;10.730;2024-01-10T10:32:54;27.83;;;13.77;;
25982;SDS011;13773;48.868;10.730;2024-01-10T10:35:20;24.30;;;14.27;;
25982;SDS011;13773;48.868;10.730;2024-01-10T10:37:49;23.33;;;14.07;;
25982;SDS011;13773;48.868;10.730;2024-01-10T10:40:16;23.87;;;13.23;;
25982;SDS011;13773;48.868;10.730;2024-01-10T10:42:47;23.20;;;12.77;;
25982;SDS011;13773;48.868;10.730;2024-01-10T10:45:15;23.00;;;13.63;;
25982;SDS011;13773;48.868;10.730;2024-01-10T10:47:43;27.63;;;14.80;;
25982;SDS011;13773;48.868;10.730;2024-01-10T10:50:21;31.40;;;14.60;;
25982;SDS011;13773;48.868;10.730;2024-01-10T10:52:48;25.27;;;13.47;;
25982;SDS011;13773;48.868;10.730;2024-01-10T10:55:15;23.40;;;12.53;;
25982;SDS011;13773;48.868;10.730;2024-01-10T10:57:44;24.77;;;13.73;;
25982;SDS011;13773;48.868;10.730;2024-01-10T11:00:13;28.07;;;16.20;;
25982;SDS011;13773;48.868;10.730;2024-01-10T11:02:40;25.67;;;14.30;;
25982;SDS011;13773;48.868;10.730;2024-01-10T11:05:07;25.23;;;14.97;;
25982;SDS011;13773;48.868;10.730;2024-01-10T11:07:41;26.53;;;14.33;;
25982;SDS011;13773;48.868;10.730;2024-01-10T11:10:29;26.20;;;14.33;;
25982;SDS011;13773;48.868;10.730;2024-01-10T11:19:10;25.93;;;14.13;;
25982;SDS011;13773;48.868;10.730;2024-01-10T11:24:17;24.20;;;14.10;;
25982;SDS011;13773;48.868;10.730;2024-01-10T11:26:45;26.83;;;14.27;;
25982;SDS011;13773;48.868;10.730;2024-01-10T11:29:11;27.50;;;14.53;;
25982;SDS011;13773;48.868;10.730;2024-01-10T11:31:38;24.30;;;14.77;;
25982;SDS011;13773;48.868;10.730;2024-01-10T11:34:04;29.30;;;15.53;;
25982;SDS011;13773;48.868;10.730;2024-01-10T11:36:30;27.37;;;15.50;;
25982;SDS011;13773;48.868;10.730;2024-01-10T11:39:03;25.33;;;15.10;;
25982;SDS011;13773;48.868;10.730;2024-01-10T11:41:31;26.27;;;15.27;;
25982;SDS011;13773;48.868;10.730;2024-01-10T11:46:45;28.00;;;14.57;;
25982;SDS011;13773;48.868;10.730;2024-01-10T11:49:15;26.97;;;14.90;;
25982;SDS011;13773;48.868;10.730;2024-01-10T11:51:42;28.97;;;15.47;;
25982;SDS011;13773;48.868;10.730;2024-01-10T11:54:09;23.43;;;14.50;;
25982;SDS011;13773;48.868;10.730;2024-01-10T11:56:39;26.60;;;15.03;;
25982;SDS011;13773;48.868;10.730;2024-01-10T11:59:12;28.27;;;15.50;;
25982;SDS011;13773;48.868;10.730;2024-01-10T12:01:41;27.83;;;15.13;;
25982;SDS011;13773;48.868;10.730;2024-01-10T12:04:08;25.13;;;14.90;;
25982;SDS011;13773;48.868;10.730;2024-01-10T12:06:37;28.57;;;14.30;;
25982;SDS011;13773;48.868;10.730;2024-01-10T12:09:03;24.40;;;14.33;;
25982;SDS011;13773;48.868;10.730;2024-01-10T12:11:37;24.93;;;14.07;;
25982;SDS011;13773;48.868;10.730;2024-01-10T12:14:08;24.47;;;13.47;;
25982;SDS011;13773;48.868;10.730;2024-01-10T12:16:34;29.73;;;15.00;;
25982;SDS011;13773;48.868;10.730;2024-01-10T12:19:00;26.73;;;15.70;;
25982;SDS011;13773;48.868;10.730;2024-01-10T12:21:26;24.30;;;13.73;;
25982;SDS011;13773;48.868;10.730;2024-01-10T12:23:52;25.53;;;14.37;;
25982;SDS011;13773;48.868;10.730;2024-01-10T12:26:18;27.13;;;15.30;;
25982;SDS011;13773;48.868;10.730;2024-01-10T12:28:56;31.43;;;16.33;;
25982;SDS011;13773;48.868;10.730;2024-01-10T12:31:24;23.07;;;14.43;;
25982;SDS011;13773;48.868;10.730;2024-01-10T12:33:56;27.13;;;15.60;;
25982;SDS011;13773;48.868;10.730;2024-01-10T12:36:24;24.80;;;14.10;;
25982;SDS011;13773;48.868;10.730;2024-01-10T12:38:50;27.90;;;15.53;;
25982;SDS011;13773;48.868;10.730;2024-01-10T12:41:17;25.00;;;15.77;;
25982;SDS011;13773;48.868;10.730;2024-01-10T12:43:48;27.20;;;15.53;;
25982;SDS011;13773;48.868;10.730;2024-01-10T12:46:17;27.67;;;15.23;;
25982;SDS011;13773;48.868;10.730;2024-01-10T12:48:43;29.27;;;15.80;;
25982;SDS011;13773;48.868;10.730;2024-01-10T12:51:10;28.00;;;15.83;;
25982;SDS011;13773;48.868;10.730;2024-01-10T12:53:43;29.03;;;15.90;;
25982;SDS011;13773;48.868;10.730;2024-01-10T12:56:10;29.70;;;15.63;;
25982;SDS011;13773;48.868;10.730;2024-01-10T12:58:39;27.07;;;16.03;;
25982;SDS011;13773;48.868;10.730;2024-01-10T13:01:09;26.30;;;14.20;;
25982;SDS011;13773;48.868;10.730;2024-01-10T13:03:36;25.43;;;15.40;;
25982;SDS011;13773;48.868;10.730;2024-01-10T13:06:05;26.30;;;15.17;;
25982;SDS011;13773;48.868;10.730;2024-01-10T13:08:31;24.77;;;15.10;;
25982;SDS011;13773;48.868;10.730;2024-01-10T13:11:00;30.13;;;15.13;;
25982;SDS011;13773;48.868;10.730;2024-01-10T13:13:25;27.10;;;15.80;;
25982;SDS011;13773;48.868;10.730;2024-01-10T13:15:51;27.87;;;15.83;;
25982;SDS011;13773;48.868;10.730;2024-01-10T13:18:17;25.67;;;15.63;;
25982;SDS011;13773;48.868;10.730;2024-01-10T13:20:43;30.30;;;15.47;;
25982;SDS011;13773;48.868;10.730;2024-01-10T13:23:10;27.83;;;15.70;;
25982;SDS011;13773;48.868;10.730;2024-01-10T13:25:36;30.10;;;16.43;;
25982;SDS011;13773;48.868;10.730;2024-01-10T13:28:03;24.57;;;15.10;;
25982;SDS011;13773;48.868;10.730;2024-01-10T13:30:29;26.07;;;15.43;;
25982;SDS011;13773;48.868;10.730;2024-01-10T13:32:55;30.77;;;16.90;;
25982;SDS011;13773;48.868;10.730;2024-01-10T13:35:23;29.50;;;16.23;;
25982;SDS011;13773;48.868;10.730;2024-01-10T13:37:49;26.47;;;15.47;;
25982;SDS011;13773;48.868;10.730;2024-01-10T13:40:15;30.70;;;16.63;;
25982;SDS011;13773;48.868;10.730;2024-01-10T13:42:41;28.33;;;16.17;;
25982;SDS011;13773;48.868;10.730;2024-01-10T13:45:08;25.57;;;15.97;;
25982;SDS011;13773;48.868;10.730;2024-01-10T13:47:36;32.90;;;16.10;;
25982;SDS011;13773;48.868;10.730;2024-01-10T13:50:03;31.13;;;16.03;;
25982;SDS011;13773;48.868;10.730;2024-01-10T13:52:32;25.30;;;15.23;;
25982;SDS011;13773;48.868;10.730;2024-01-10T13:54:58;28.33;;;16.03;;
25982;SDS011;13773;48.868;10.730;2024-01-10T13:57:24;29.37;;;16.67;;
25982;SDS011;13773;48.868;10.730;2024-01-10T13:59:50;27.20;;;15.60;;
25982;SDS011;13773;48.868;10.730;2024-01-10T14:02:16;26.43;;;15.33;;
25982;SDS011;13773;48.868;10.730;2024-01-10T14:04:44;27.00;;;15.53;;
25982;SDS011;13773;48.868;10.730;2024-01-10T14:07:10;31.00;;;16.53;;
25982;SDS011;13773;48.868;10.730;2024-01-10T14:09:36;30.63;;;17.87;;
25982;SDS011;13773;48.868;10.730;2024-01-10T14:12:01;28.70;;;17.43;;
25982;SDS011;13773;48.868;10.730;2024-01-10T14:14:27;30.80;;;16.97;;
25982;SDS011;13773;48.868;10.730;2024-01-10T14:16:53;31.30;;;17.97;;
25982;SDS011;13773;48.868;10.730;2024-01-10T14:19:19;32.57;;;18.10;;
25982;SDS011;13773;48.868;10.730;2024-01-10T14:21:45;31.17;;;17.33;;